createdAt,value
2017-09-14T00:00:04.195Z,1.90
2017-09-14T00:02:30.588Z,2.03
2017-09-14T00:04:57.698Z,2.10
2017-09-14T00:07:24.140Z,2.10
2017-09-14T00:09:50.560Z,2.80
2017-09-14T00:12:16.935Z,1.73
2017-09-14T00:14:44.116Z,2.50
2017-09-14T00:17:10.587Z,2.00
2017-09-14T00:19:36.966Z,2.20
2017-09-14T00:22:04.092Z,2.23
2017-09-14T00:24:30.504Z,2.10
2017-09-14T00:26:56.911Z,2.33
2017-09-14T00:29:23.327Z,2.10
2017-09-14T00:31:49.727Z,2.47
2017-09-14T00:34:16.147Z,2.23
2017-09-14T00:36:42.639Z,2.23
2017-09-14T00:39:09.059Z,2.60
2017-09-14T00:41:35.474Z,2.37
2017-09-14T00:44:02.644Z,2.00
2017-09-14T00:46:29.144Z,2.00
2017-09-14T00:48:55.551Z,2.37
2017-09-14T00:51:21.977Z,2.33
2017-09-14T00:53:48.435Z,2.30
2017-09-14T00:56:14.947Z,2.53
2017-09-14T00:58:41.391Z,2.40
2017-09-14T01:01:07.804Z,2.70
2017-09-14T01:03:34.199Z,1.87
2017-09-14T01:06:00.631Z,2.10
2017-09-14T01:08:27.774Z,1.80
2017-09-14T01:10:54.904Z,1.90
2017-09-14T01:13:21.333Z,1.90
2017-09-14T01:15:47.719Z,2.17
2017-09-14T01:18:14.191Z,2.73
2017-09-14T01:20:40.656Z,2.20
2017-09-14T01:23:07.079Z,3.50
2017-09-14T01:25:34.368Z,2.40
2017-09-14T01:28:00.835Z,2.50
2017-09-14T01:30:27.295Z,2.47
2017-09-14T01:32:54.484Z,2.73
2017-09-14T01:35:20.917Z,2.50
2017-09-14T01:37:47.495Z,2.40
2017-09-14T01:40:13.936Z,1.80
2017-09-14T01:42:40.351Z,2.00
2017-09-14T01:45:06.763Z,2.43
2017-09-14T01:47:33.219Z,2.43
2017-09-14T01:49:59.651Z,2.27
2017-09-14T01:52:26.047Z,2.37
2017-09-14T01:54:52.451Z,2.30
2017-09-14T01:57:19.639Z,2.90
2017-09-14T01:59:46.040Z,1.80
2017-09-14T02:02:13.183Z,2.60
2017-09-14T02:04:40.299Z,2.20
2017-09-14T02:07:06.724Z,2.40
2017-09-14T02:09:33.107Z,1.87
2017-09-14T02:12:00.251Z,2.30
2017-09-14T02:14:27.376Z,2.10
2017-09-14T02:16:53.803Z,1.83
2017-09-14T02:19:20.198Z,2.03
2017-09-14T02:21:46.570Z,1.60
2017-09-14T02:24:12.976Z,2.63
2017-09-14T02:26:39.406Z,1.70
2017-09-14T02:29:05.812Z,2.53
2017-09-14T02:31:32.227Z,1.97
2017-09-14T02:33:59.468Z,2.20
2017-09-14T02:36:25.984Z,2.60
2017-09-14T02:38:52.367Z,2.20
2017-09-14T02:41:18.795Z,1.90
2017-09-14T02:43:45.183Z,2.00
2017-09-14T02:46:11.683Z,1.93
2017-09-14T02:48:38.088Z,1.83
2017-09-14T02:51:04.481Z,1.93
2017-09-14T02:53:30.871Z,2.30
2017-09-14T02:55:57.287Z,2.13
2017-09-14T02:58:23.712Z,2.10
2017-09-14T03:00:50.137Z,2.50
2017-09-14T03:03:17.255Z,2.07
2017-09-14T03:05:43.657Z,2.27
2017-09-14T03:08:10.122Z,2.40
2017-09-14T03:10:36.499Z,2.47
2017-09-14T03:13:02.927Z,2.40
2017-09-14T03:15:30.075Z,2.97
2017-09-14T03:17:56.539Z,3.03
2017-09-14T03:20:22.952Z,2.87
2017-09-14T03:22:49.367Z,2.67
2017-09-14T03:25:16.519Z,2.97
2017-09-14T03:27:43.743Z,2.23
2017-09-14T03:30:10.135Z,2.10
2017-09-14T03:32:36.602Z,2.70
2017-09-14T03:35:03.035Z,2.53
2017-09-14T03:37:29.857Z,2.70
2017-09-14T03:39:57.059Z,2.50
2017-09-14T03:42:24.175Z,2.93
2017-09-14T03:44:50.586Z,1.83
2017-09-14T03:47:17.011Z,2.73
2017-09-14T03:49:43.422Z,2.33
2017-09-14T03:52:09.802Z,1.83
2017-09-14T03:54:36.184Z,1.93
2017-09-14T03:57:02.692Z,2.93
2017-09-14T03:59:29.091Z,2.40
2017-09-14T04:01:55.571Z,2.10
2017-09-14T04:04:21.979Z,2.20
2017-09-14T04:06:48.543Z,2.17
2017-09-14T04:09:15.719Z,2.70
2017-09-14T04:11:42.115Z,2.33
2017-09-14T04:14:08.516Z,2.20
2017-09-14T04:16:34.918Z,2.30
2017-09-14T04:19:01.363Z,3.60
2017-09-14T04:21:27.787Z,3.13
2017-09-14T04:23:54.171Z,2.60
2017-09-14T04:26:20.691Z,2.37
2017-09-14T04:28:47.116Z,2.17
2017-09-14T04:31:13.940Z,3.40
2017-09-14T04:33:40.446Z,3.27
2017-09-14T04:36:06.963Z,3.20
2017-09-14T04:38:34.091Z,3.50
2017-09-14T04:41:00.628Z,2.80
2017-09-14T04:43:27.080Z,3.07
2017-09-14T04:45:54.580Z,3.13
2017-09-14T04:48:21.099Z,3.07
2017-09-14T04:50:47.547Z,3.00
2017-09-14T04:53:13.980Z,2.53
2017-09-14T04:55:40.379Z,2.70
2017-09-14T04:58:06.862Z,2.63
2017-09-14T05:00:33.258Z,3.07
2017-09-14T05:02:59.671Z,3.40
2017-09-14T05:05:26.815Z,3.33
2017-09-14T05:07:54.034Z,3.10
2017-09-14T05:10:20.504Z,2.97
2017-09-14T05:12:47.004Z,2.90
2017-09-14T05:15:13.407Z,3.23
2017-09-14T05:17:39.876Z,2.70
2017-09-14T05:20:06.292Z,2.90
2017-09-14T05:22:33.825Z,3.10
2017-09-14T05:25:00.260Z,2.90
2017-09-14T05:27:26.663Z,3.10
2017-09-14T05:29:53.851Z,2.73
2017-09-14T05:32:20.254Z,2.80
2017-09-14T05:34:47.367Z,2.60
2017-09-14T05:37:13.812Z,2.97
2017-09-14T05:39:40.195Z,3.90
2017-09-14T05:42:06.611Z,3.53
2017-09-14T05:44:33.026Z,2.67
2017-09-14T05:47:00.260Z,3.50
2017-09-14T05:49:26.724Z,2.67
2017-09-14T05:51:53.880Z,2.70
2017-09-14T05:54:20.280Z,3.00
2017-09-14T05:56:46.695Z,2.50
2017-09-14T05:59:13.083Z,3.00
2017-09-14T06:01:39.483Z,2.33
2017-09-14T06:04:05.934Z,3.03
2017-09-14T06:06:32.427Z,2.57
2017-09-14T06:08:58.883Z,2.70
2017-09-14T06:11:26.044Z,3.27
2017-09-14T06:13:55.298Z,2.80
2017-09-14T06:16:21.801Z,3.03
2017-09-14T06:18:48.200Z,2.67
2017-09-14T06:21:14.701Z,3.10
2017-09-14T06:23:41.175Z,2.80
2017-09-14T06:26:08.402Z,2.97
2017-09-14T06:28:34.840Z,2.60
2017-09-14T06:31:01.292Z,2.50
2017-09-14T06:33:27.776Z,2.53
2017-09-14T06:35:54.275Z,2.57
2017-09-14T06:38:20.804Z,2.90
2017-09-14T06:40:47.353Z,3.30
2017-09-14T06:43:13.892Z,2.27
2017-09-14T06:45:40.343Z,2.80
2017-09-14T06:48:06.860Z,2.80
2017-09-14T06:50:33.311Z,3.40
2017-09-14T06:52:59.817Z,3.07
2017-09-14T06:55:26.280Z,3.47
2017-09-14T06:57:52.758Z,3.50
2017-09-14T07:00:19.900Z,3.00
2017-09-14T07:02:46.402Z,3.13
2017-09-14T07:05:12.823Z,3.60
2017-09-14T07:07:39.305Z,3.50
2017-09-14T07:10:06.554Z,3.43
2017-09-14T07:12:33.781Z,3.87
2017-09-14T07:15:00.255Z,3.97
2017-09-14T07:17:27.466Z,3.10
2017-09-14T07:19:53.994Z,3.33
2017-09-14T07:22:20.443Z,2.83
2017-09-14T07:24:46.887Z,3.00
2017-09-14T07:27:13.299Z,3.50
2017-09-14T07:29:39.794Z,2.97
2017-09-14T07:32:06.290Z,3.53
2017-09-14T07:34:32.824Z,2.53
2017-09-14T07:36:59.326Z,3.93
2017-09-14T07:39:25.748Z,3.97
2017-09-14T07:41:52.252Z,4.07
2017-09-14T07:44:18.684Z,3.77
2017-09-14T07:46:45.934Z,3.67
2017-09-14T07:49:12.339Z,4.17
2017-09-14T07:51:38.788Z,3.73
2017-09-14T07:54:06.035Z,3.40
2017-09-14T07:56:32.562Z,3.27
2017-09-14T07:58:59.079Z,3.47
2017-09-14T08:01:25.507Z,2.97
2017-09-14T08:03:51.945Z,2.70
2017-09-14T08:06:18.444Z,2.93
2017-09-14T08:08:44.908Z,3.30
2017-09-14T08:11:11.388Z,2.90
2017-09-14T08:13:38.591Z,3.40
2017-09-14T08:16:05.089Z,3.60
2017-09-14T08:18:31.496Z,3.37
2017-09-14T08:20:58.049Z,2.70
2017-09-14T08:23:24.562Z,2.37
2017-09-14T08:25:51.041Z,3.27
2017-09-14T08:28:17.528Z,2.80
2017-09-14T08:30:44.796Z,2.47
2017-09-14T08:33:12.050Z,2.50
2017-09-14T08:35:39.196Z,3.03
2017-09-14T08:38:05.696Z,2.77
2017-09-14T08:40:32.102Z,3.37
2017-09-14T08:42:58.573Z,3.10
2017-09-14T08:45:25.081Z,2.87
2017-09-14T08:47:51.569Z,2.97
2017-09-14T08:50:18.782Z,2.60
2017-09-14T08:52:45.383Z,2.70
2017-09-14T08:55:11.832Z,2.97
2017-09-14T08:57:38.264Z,2.30
2017-09-14T09:00:04.782Z,2.87
2017-09-14T09:02:31.231Z,2.90
2017-09-14T09:04:57.726Z,2.60
2017-09-14T09:07:24.867Z,2.30
2017-09-14T09:09:52.068Z,2.47
2017-09-14T09:12:18.493Z,3.03
2017-09-14T09:14:44.959Z,2.50
2017-09-14T09:17:11.408Z,2.47
2017-09-14T09:19:37.855Z,2.60
2017-09-14T09:22:05.015Z,2.40
2017-09-14T09:24:32.244Z,2.40
2017-09-14T09:26:59.397Z,2.50
2017-09-14T09:29:25.906Z,2.70
2017-09-14T09:31:52.337Z,2.10
2017-09-14T09:34:18.975Z,2.90
2017-09-14T09:36:45.395Z,1.93
2017-09-14T09:39:11.852Z,2.50
2017-09-14T09:41:38.381Z,3.17
2017-09-14T09:44:05.021Z,2.63
2017-09-14T09:46:31.756Z,2.13
2017-09-14T09:48:58.208Z,2.50
2017-09-14T09:51:24.712Z,2.30
2017-09-14T09:53:51.140Z,3.00
2017-09-14T09:56:17.646Z,2.50
2017-09-14T09:58:44.154Z,2.03
2017-09-14T10:01:11.317Z,2.70
2017-09-14T10:03:37.810Z,2.80
2017-09-14T10:06:04.379Z,2.50
2017-09-14T10:08:30.882Z,2.20
2017-09-14T10:10:57.278Z,2.47
2017-09-14T10:13:23.770Z,3.53
2017-09-14T10:15:50.232Z,2.00
2017-09-14T10:18:16.719Z,2.77
2017-09-14T10:20:43.251Z,1.90
2017-09-14T10:23:09.701Z,2.70
2017-09-14T10:25:44.241Z,2.30
2017-09-14T10:28:11.403Z,3.07
2017-09-14T10:30:37.854Z,2.60
2017-09-14T10:33:04.380Z,2.40
2017-09-14T10:35:30.904Z,2.53
2017-09-14T10:37:58.326Z,2.20
2017-09-14T10:40:24.776Z,2.60
2017-09-14T10:42:51.253Z,2.17
2017-09-14T10:45:17.675Z,2.90
2017-09-14T10:47:45.013Z,1.97
2017-09-14T10:50:12.168Z,2.30
2017-09-14T10:52:38.634Z,2.37
2017-09-14T10:55:05.184Z,2.70
2017-09-14T10:57:31.667Z,2.80
2017-09-14T10:59:58.889Z,2.40
2017-09-14T11:02:25.324Z,2.83
2017-09-14T11:04:52.591Z,2.30
2017-09-14T11:07:19.761Z,2.20
2017-09-14T11:09:46.998Z,2.90
2017-09-14T11:12:14.178Z,2.07
2017-09-14T11:14:41.384Z,2.47
2017-09-14T11:17:07.839Z,2.50
2017-09-14T11:19:34.297Z,2.27
2017-09-14T11:22:00.732Z,2.90
2017-09-14T11:24:27.228Z,2.33
2017-09-14T11:26:53.733Z,2.47
2017-09-14T11:29:20.210Z,2.07
2017-09-14T11:31:47.541Z,2.87
2017-09-14T11:34:13.978Z,2.87
2017-09-14T11:36:40.477Z,2.87
2017-09-14T11:39:06.878Z,2.30
2017-09-14T11:41:34.142Z,2.40
2017-09-14T11:44:01.287Z,2.70
2017-09-14T11:46:28.522Z,2.77
2017-09-14T11:48:55.676Z,2.73
2017-09-14T11:51:22.886Z,2.50
2017-09-14T11:53:49.373Z,4.30
2017-09-14T11:56:15.815Z,3.70
2017-09-14T11:58:42.211Z,3.13
2017-09-14T12:01:08.608Z,2.50
2017-09-14T12:03:35.018Z,3.60
2017-09-14T12:06:01.423Z,2.83
2017-09-14T12:08:27.816Z,2.20
2017-09-14T12:10:54.201Z,2.63
2017-09-14T12:13:21.376Z,2.50
2017-09-14T12:15:47.747Z,2.53
2017-09-14T12:18:14.119Z,2.40
2017-09-14T12:20:41.271Z,2.83
2017-09-14T12:23:07.659Z,3.07
2017-09-14T12:25:34.063Z,2.87
2017-09-14T12:28:00.471Z,2.67
2017-09-14T12:30:26.864Z,2.77
2017-09-14T12:32:53.263Z,2.60
2017-09-14T12:35:19.719Z,2.27
2017-09-14T12:37:46.231Z,3.53
2017-09-14T12:40:12.619Z,2.70
2017-09-14T12:42:39.043Z,3.23
2017-09-14T12:45:06.193Z,2.63
2017-09-14T12:47:32.596Z,3.30
2017-09-14T12:49:59.011Z,4.90
2017-09-14T12:52:25.396Z,3.53
2017-09-14T12:54:52.562Z,3.20
2017-09-14T12:57:19.687Z,3.60
2017-09-14T12:59:46.851Z,3.10
2017-09-14T13:02:14.007Z,3.60
2017-09-14T13:04:41.120Z,2.60
2017-09-14T13:07:07.564Z,3.17
2017-09-14T13:09:33.943Z,2.90
2017-09-14T13:12:00.350Z,3.30
2017-09-14T13:14:27.547Z,2.60
2017-09-14T13:16:53.970Z,2.63
2017-09-14T13:19:20.422Z,3.10
2017-09-14T13:21:46.871Z,2.53
2017-09-14T13:24:13.276Z,3.10
2017-09-14T13:26:39.691Z,3.03
2017-09-14T13:29:06.108Z,3.10
2017-09-14T13:31:32.511Z,2.60
2017-09-14T13:33:58.919Z,3.13
2017-09-14T13:36:25.343Z,3.00
2017-09-14T13:38:51.777Z,3.37
2017-09-14T13:41:18.324Z,2.83
2017-09-14T13:43:44.731Z,2.47
2017-09-14T13:46:11.138Z,3.03
2017-09-14T13:48:37.587Z,3.00
2017-09-14T13:51:04.019Z,3.37
2017-09-14T13:53:30.431Z,3.00
2017-09-14T13:55:57.617Z,3.13
2017-09-14T13:58:24.082Z,2.70
2017-09-14T14:00:50.507Z,2.30
2017-09-14T14:03:16.924Z,2.77
2017-09-14T14:05:43.323Z,2.80
2017-09-14T14:08:09.804Z,2.57
2017-09-14T14:10:36.328Z,2.80
2017-09-14T14:13:03.596Z,2.53
2017-09-14T14:15:29.998Z,2.63
2017-09-14T14:17:56.447Z,3.03
2017-09-14T14:20:22.839Z,3.10
2017-09-14T14:22:49.244Z,3.30
2017-09-14T14:25:15.607Z,2.80
2017-09-14T14:27:42.095Z,2.80
2017-09-14T14:30:08.489Z,2.30
2017-09-14T14:32:34.891Z,2.23
2017-09-14T14:35:02.043Z,2.50
2017-09-14T14:37:29.240Z,2.90
2017-09-14T14:39:55.663Z,3.10
2017-09-14T14:44:55.231Z,2.80
2017-09-14T14:47:21.743Z,2.90
2017-09-14T14:49:48.127Z,3.10
2017-09-14T14:52:14.549Z,3.33
2017-09-14T14:54:42.048Z,2.67
2017-09-14T14:57:09.400Z,2.30
2017-09-14T14:59:35.831Z,2.63
2017-09-14T15:02:02.252Z,2.40
2017-09-14T15:04:28.676Z,2.63
2017-09-14T15:06:55.241Z,2.50
2017-09-14T15:09:21.791Z,2.50
2017-09-14T15:11:48.971Z,2.30
2017-09-14T15:14:16.093Z,3.03
2017-09-14T15:16:42.493Z,2.63
2017-09-14T15:19:08.988Z,2.33
2017-09-14T15:21:36.433Z,2.50
2017-09-14T15:24:02.992Z,1.90
2017-09-14T15:26:30.218Z,2.07
2017-09-14T15:28:56.686Z,2.50
2017-09-14T15:31:23.424Z,2.03
2017-09-14T15:33:49.823Z,2.27
2017-09-14T15:36:16.525Z,2.80
2017-09-14T15:41:43.091Z,1.97
2017-09-14T15:44:15.531Z,2.20
2017-09-14T15:46:42.004Z,2.30
2017-09-14T15:49:14.582Z,1.60
2017-09-14T15:51:46.964Z,2.00
2017-09-14T15:54:13.340Z,3.73
2017-09-14T15:56:39.910Z,2.30
2017-09-14T15:59:06.396Z,2.33
2017-09-14T16:01:33.541Z,2.00
2017-09-14T16:04:00.899Z,2.23
2017-09-14T16:06:27.510Z,2.13
2017-09-14T16:08:53.983Z,2.43
2017-09-14T16:11:20.504Z,2.03
2017-09-14T16:13:47.011Z,1.97
2017-09-14T16:16:13.559Z,2.30
2017-09-14T16:18:40.764Z,2.10
2017-09-14T16:21:07.215Z,1.57
2017-09-14T16:23:33.606Z,1.63
2017-09-14T16:26:00.025Z,1.80
2017-09-14T16:28:27.400Z,1.67
2017-09-14T16:30:53.906Z,1.47
2017-09-14T16:33:21.249Z,2.40
2017-09-14T16:35:47.781Z,1.90
2017-09-14T16:38:15.178Z,1.50
2017-09-14T16:40:41.628Z,1.60
2017-09-14T16:43:08.152Z,1.20
2017-09-14T16:45:34.800Z,1.63
2017-09-14T16:48:01.325Z,1.80
2017-09-14T16:50:27.747Z,1.37
2017-09-14T16:52:54.420Z,1.60
2017-09-14T16:55:20.937Z,1.50
2017-09-14T16:57:47.437Z,1.70
2017-09-14T17:00:14.648Z,1.60
2017-09-14T17:02:41.091Z,1.33
2017-09-14T17:05:07.523Z,1.17
2017-09-14T17:07:34.585Z,1.43
2017-09-14T17:10:00.995Z,1.10
2017-09-14T17:12:27.432Z,1.80
2017-09-14T17:14:53.867Z,1.10
2017-09-14T17:17:20.316Z,1.07
2017-09-14T17:19:46.720Z,1.30
2017-09-14T17:22:13.108Z,1.30
2017-09-14T17:24:40.354Z,1.40
2017-09-14T17:27:06.825Z,1.07
2017-09-14T17:29:33.226Z,1.20
2017-09-14T17:32:00.331Z,1.00
2017-09-14T17:34:26.742Z,1.30
2017-09-14T17:36:53.211Z,0.90
2017-09-14T17:39:19.619Z,1.07
2017-09-14T17:41:46.060Z,1.00
2017-09-14T17:44:12.458Z,0.70
2017-09-14T17:46:39.015Z,1.00
2017-09-14T17:49:05.436Z,1.43
2017-09-14T17:51:31.891Z,0.90
2017-09-14T17:53:58.283Z,1.00
2017-09-14T17:56:25.516Z,1.07
2017-09-14T17:58:51.899Z,0.90
2017-09-14T18:01:18.295Z,1.00
2017-09-14T18:03:45.462Z,1.00
2017-09-14T18:06:13.039Z,0.80
2017-09-14T18:08:39.457Z,0.97
2017-09-14T18:11:05.827Z,0.80
2017-09-14T18:13:32.328Z,0.90
2017-09-14T18:15:58.775Z,1.23
2017-09-14T18:18:25.210Z,0.70
2017-09-14T18:20:51.606Z,0.70
2017-09-14T18:23:18.764Z,0.67
2017-09-14T18:25:45.156Z,0.60
2017-09-14T18:28:11.659Z,0.70
2017-09-14T18:30:38.039Z,0.60
2017-09-14T18:33:04.457Z,0.83
2017-09-14T18:35:30.925Z,0.50
2017-09-14T18:37:57.437Z,0.90
2017-09-14T18:40:24.660Z,0.80
2017-09-14T18:42:51.070Z,0.70
2017-09-14T18:45:17.484Z,0.63
2017-09-14T18:47:43.954Z,0.67
2017-09-14T18:50:10.340Z,0.53
2017-09-14T18:52:36.735Z,0.50
2017-09-14T18:55:03.171Z,0.60
2017-09-14T18:57:29.667Z,0.70
2017-09-14T18:59:56.114Z,1.00
2017-09-14T19:02:22.519Z,0.63
2017-09-14T19:04:48.920Z,0.60
2017-09-14T19:07:16.171Z,0.70
2017-09-14T19:09:42.604Z,0.90
2017-09-14T19:12:09.009Z,0.70
2017-09-14T19:14:35.395Z,0.97
2017-09-14T19:17:01.874Z,1.13
2017-09-14T19:19:28.316Z,0.60
2017-09-14T19:21:54.736Z,1.00
2017-09-14T19:24:21.237Z,1.03
2017-09-14T19:26:47.683Z,0.70
2017-09-14T19:29:14.076Z,0.50
2017-09-14T19:31:41.279Z,0.83
2017-09-14T19:34:07.701Z,1.00
2017-09-14T19:36:34.195Z,1.10
2017-09-14T19:39:01.409Z,1.00
2017-09-14T19:41:27.911Z,1.00
2017-09-14T19:43:55.063Z,1.03
2017-09-14T19:46:21.506Z,1.67
2017-09-14T19:48:49.136Z,0.67
2017-09-14T19:51:15.595Z,0.73
2017-09-14T19:53:42.018Z,0.93
2017-09-14T19:56:08.462Z,0.87
2017-09-14T19:58:34.834Z,0.50
2017-09-14T20:01:01.248Z,0.60
2017-09-14T20:03:27.687Z,0.90
2017-09-14T20:05:54.847Z,0.80
2017-09-14T20:08:22.750Z,0.70
2017-09-14T20:10:49.367Z,1.03
2017-09-14T20:13:16.067Z,1.00
2017-09-14T20:15:42.448Z,0.80
2017-09-14T20:18:08.968Z,0.60
2017-09-14T20:20:35.436Z,0.87
2017-09-14T20:23:01.835Z,1.40
2017-09-14T20:25:28.295Z,1.30
2017-09-14T20:27:54.792Z,0.80
2017-09-14T20:30:21.931Z,0.73
2017-09-14T20:32:48.339Z,1.27
2017-09-14T20:35:14.772Z,0.80
2017-09-14T20:37:41.215Z,1.07
2017-09-14T20:40:07.979Z,0.70
2017-09-14T20:42:34.517Z,1.20
2017-09-14T20:45:00.944Z,1.10
2017-09-14T20:47:27.444Z,1.77
2017-09-14T20:49:53.843Z,1.87
2017-09-14T20:52:21.041Z,1.20
2017-09-14T20:54:47.452Z,1.13
2017-09-14T20:57:14.032Z,1.00
2017-09-14T20:59:40.426Z,1.00
2017-09-14T21:02:06.841Z,0.83
2017-09-14T21:04:33.279Z,1.30
2017-09-14T21:06:59.728Z,0.60
2017-09-14T21:09:26.147Z,0.83
2017-09-14T21:11:52.558Z,0.80
2017-09-14T21:14:19.699Z,0.80
2017-09-14T21:16:46.900Z,0.80
2017-09-14T21:19:13.279Z,1.10
2017-09-14T21:21:40.450Z,0.70
2017-09-14T21:24:06.884Z,0.70
2017-09-14T21:26:34.053Z,0.80
2017-09-14T21:29:00.495Z,0.63
2017-09-14T21:31:26.904Z,0.53
2017-09-14T21:36:50.916Z,0.67
2017-09-14T21:39:17.289Z,0.60
2017-09-14T21:41:44.376Z,0.63
2017-09-14T21:44:11.479Z,0.70
2017-09-14T21:46:38.032Z,1.00
2017-09-14T21:49:04.420Z,0.50
2017-09-14T21:51:30.800Z,0.47
2017-09-14T21:53:57.211Z,0.50
2017-09-14T21:56:25.374Z,0.40
2017-09-14T21:58:51.822Z,0.67
2017-09-14T22:01:18.195Z,0.63
2017-09-14T22:03:45.352Z,0.50
2017-09-14T22:06:11.828Z,0.60
2017-09-14T22:08:38.235Z,0.63
2017-09-14T22:11:04.608Z,1.00
2017-09-14T22:13:30.984Z,0.30
2017-09-14T22:15:58.131Z,0.67
2017-09-14T22:18:25.296Z,0.70
2017-09-14T22:20:51.684Z,0.83
2017-09-14T22:23:18.090Z,0.73
2017-09-14T22:25:44.456Z,0.70
2017-09-14T22:28:10.959Z,0.70
2017-09-14T22:30:37.378Z,0.87
2017-09-14T22:33:03.782Z,0.80
2017-09-14T22:35:30.181Z,0.67
2017-09-14T22:37:56.688Z,0.60
2017-09-14T22:40:23.067Z,0.97
2017-09-14T22:42:50.195Z,0.87
2017-09-14T22:45:16.608Z,0.80
2017-09-14T22:47:43.025Z,0.80
2017-09-14T22:50:09.424Z,0.60
2017-09-14T22:52:36.560Z,0.73
2017-09-14T22:55:02.936Z,1.10
2017-09-14T22:57:29.392Z,0.80
2017-09-14T22:59:55.769Z,0.57
2017-09-14T23:02:22.889Z,0.90
2017-09-14T23:04:49.328Z,0.90
2017-09-14T23:07:15.836Z,0.60
2017-09-14T23:09:42.216Z,0.80
2017-09-14T23:12:09.357Z,0.70
2017-09-14T23:14:36.492Z,0.83
2017-09-14T23:17:03.894Z,1.50
2017-09-14T23:19:30.352Z,0.80
2017-09-14T23:21:56.759Z,0.93
2017-09-14T23:24:23.148Z,1.07
2017-09-14T23:26:50.371Z,0.93
2017-09-14T23:29:16.748Z,0.90
2017-09-14T23:31:43.150Z,1.00
2017-09-14T23:34:09.526Z,0.93
2017-09-14T23:36:36.008Z,1.00
2017-09-14T23:39:02.452Z,0.90
2017-09-14T23:41:28.865Z,1.00
2017-09-14T23:43:55.988Z,1.10
2017-09-14T23:46:22.407Z,1.40
2017-09-14T23:48:48.815Z,0.87
2017-09-14T23:51:15.944Z,1.10
2017-09-14T23:53:42.380Z,0.90
2017-09-14T23:56:08.791Z,0.80
2017-09-14T23:58:35.195Z,0.83
